Time;durP1;ratioP1;P1;durP2;ratioP2;P2;SDS_P1;SDS_P2;PMS_P1;PMS_P2;Temp;Humidity;BMP_temperature;BMP_pressure;BME280_temperature;BME280_humidity;BME280_pressure;Samples;Min_cycle;Max_cycle;Signal;HPM_P1;HPM_P2
2024/01/12 06:17:41;;;;;;;3.47;1.40;;;;;;;-8.24;64.70;100535.80;1120379;128;21408;-75
2024/01/12 06:20:36;;;;;;;1.50;0.98;;;;;;;-8.34;65.31;100539.88;1848477;77;22190;-74
2024/01/12 06:23:05;;;;;;;2.83;1.40;;;;;;;-8.38;65.19;100538.30;1820843;79;21130;-74
2024/01/12 06:25:36;;;;;;;4.50;1.27;;;;;;;-8.41;64.97;100537.12;1754304;81;21138;-74
2024/01/12 06:28:05;;;;;;;3.58;1.70;;;;;;;-8.40;65.19;100541.50;1754018;82;21547;-73
2024/01/12 06:30:33;;;;;;;5.95;1.70;;;;;;;-8.39;65.31;100544.55;1754300;82;21173;-74
2024/01/12 06:33:03;;;;;;;3.55;1.50;;;;;;;-8.39;65.20;100545.41;1753898;82;21122;-74
2024/01/12 06:35:31;;;;;;;5.30;1.27;;;;;;;-8.39;65.18;100548.53;1754028;82;21274;-74
2024/01/12 06:38:00;;;;;;;8.33;1.60;;;;;;;-8.37;65.25;100546.20;1724973;82;21166;-73
2024/01/12 06:40:28;;;;;;;6.05;1.60;;;;;;;-8.35;65.21;100552.77;1754100;82;21143;-74
2024/01/12 06:42:57;;;;;;;4.30;1.57;;;;;;;-8.33;65.19;100544.25;1754344;82;21542;-74
2024/01/12 06:45:25;;;;;;;4.90;1.67;;;;;;;-8.36;65.07;100547.92;1754023;82;21126;-76
2024/01/12 06:47:54;;;;;;;4.33;1.75;;;;;;;-8.43;64.94;100550.48;1754281;82;21593;-74
2024/01/12 06:50:23;;;;;;;5.53;2.42;;;;;;;-8.43;65.11;100550.95;1754008;82;21181;-75
2024/01/12 06:52:51;;;;;;;5.30;2.20;;;;;;;-8.42;65.28;100546.02;1753825;82;21130;-73
2024/01/12 06:55:20;;;;;;;10.70;2.85;;;;;;;-8.42;65.25;100549.55;1753962;82;21776;-74
2024/01/12 06:57:48;;;;;;;4.03;2.00;;;;;;;-8.40;65.43;100554.78;1754161;82;21173;-75
2024/01/12 07:00:17;;;;;;;5.62;2.60;;;;;;;-8.40;65.16;100557.44;1753927;82;21135;-74
2024/01/12 07:02:46;;;;;;;8.90;2.58;;;;;;;-8.41;65.17;100554.39;1754073;82;21150;-75
2024/01/12 07:05:14;;;;;;;5.35;2.20;;;;;;;-8.41;65.27;100563.22;1754017;82;21170;-75
2024/01/12 07:07:43;;;;;;;6.28;2.15;;;;;;;-8.35;65.38;100559.41;1754274;82;21122;-75
2024/01/12 07:10:12;;;;;;;10.40;2.98;;;;;;;-8.32;65.38;100563.21;1754100;82;21125;-74
2024/01/12 07:12:41;;;;;;;7.60;2.17;;;;;;;-8.29;65.39;100556.42;1754212;82;21095;-75
2024/01/12 07:15:10;;;;;;;5.72;1.98;;;;;;;-8.28;65.39;100569.23;1753786;82;21198;-73
2024/01/12 07:17:39;;;;;;;6.03;2.65;;;;;;;-8.30;65.07;100562.66;1754221;82;21118;-75
2024/01/12 07:20:10;;;;;;;8.75;2.50;;;;;;;-8.34;65.13;100564.64;1748519;82;21190;-75
2024/01/12 07:22:40;;;;;;;6.37;2.72;;;;;;;-8.36;65.17;100580.27;1815450;79;21173;-74
2024/01/12 07:25:08;;;;;;;6.65;2.60;;;;;;;-8.33;65.28;100581.45;1815061;79;21087;-75
2024/01/12 07:27:37;;;;;;;6.92;4.20;;;;;;;-8.33;65.32;100579.62;1814967;79;21668;-75
2024/01/12 07:30:06;;;;;;;5.00;2.30;;;;;;;-8.33;65.14;100582.27;1784232;79;21107;-73
2024/01/12 07:32:37;;;;;;;5.60;2.00;;;;;;;-8.35;64.96;100589.50;1814834;79;21555;-75
2024/01/12 07:35:06;;;;;;;9.05;3.72;;;;;;;-8.36;65.05;100596.21;1745694;82;21112;-75
2024/01/12 07:37:34;;;;;;;4.17;2.00;;;;;;;-8.38;65.16;100598.94;1814540;79;21107;-75
2024/01/12 07:40:04;;;;;;;4.87;1.92;;;;;;;-8.35;65.10;100600.13;1745466;82;21171;-76
2024/01/12 07:42:34;;;;;;;4.55;2.10;;;;;;;-8.34;65.19;100609.81;1814672;79;21582;-75
2024/01/12 07:45:05;;;;;;;5.08;1.95;;;;;;;-8.31;65.22;100604.33;1745428;82;21602;-75
2024/01/12 07:47:34;;;;;;;7.05;2.10;;;;;;;-8.27;65.22;100605.03;1814611;79;21124;-75
2024/01/12 07:50:03;;;;;;;4.05;1.92;;;;;;;-8.27;65.08;100605.50;1745496;82;21173;-75
2024/01/12 07:52:32;;;;;;;5.83;2.02;;;;;;;-8.22;65.14;100608.33;1814865;79;21115;-76
2024/01/12 07:55:02;;;;;;;4.95;1.80;;;;;;;-8.16;65.19;100612.02;1814706;79;21145;-76
2024/01/12 07:57:31;;;;;;;6.67;1.90;;;;;;;-7.99;65.28;100607.20;1814748;79;21122;-76
2024/01/12 08:00:02;;;;;;;3.98;1.80;;;;;;;-7.76;65.18;100606.09;1783604;79;21170;-75
2024/01/12 08:02:33;;;;;;;5.58;1.60;;;;;;;-7.50;64.55;100610.95;1813224;79;21107;-75
2024/01/12 08:05:02;;;;;;;3.85;1.40;;;;;;;-7.16;63.99;100614.06;1814599;79;21170;-75
2024/01/12 08:07:31;;;;;;;5.62;2.25;;;;;;;-6.82;63.28;100599.84;1814955;79;21115;-79
2024/01/12 08:09:59;;;;;;;5.28;1.80;;;;;;;-6.45;62.82;100600.05;1745604;82;21139;-78
2024/01/12 08:12:28;;;;;;;8.00;2.15;;;;;;;-6.08;62.07;100597.50;1815000;79;21099;-77
2024/01/12 08:14:57;;;;;;;5.45;2.22;;;;;;;-5.83;60.61;100613.44;1745512;82;21154;-76
2024/01/12 08:17:25;;;;;;;4.30;1.98;;;;;;;-5.49;60.21;100609.17;1783744;79;21121;-79
2024/01/12 08:19:54;;;;;;;4.10;1.80;;;;;;;-5.22;59.56;100607.14;1742294;82;21619;-79
2024/01/12 08:22:22;;;;;;;6.08;2.02;;;;;;;-4.98;58.95;100611.02;1784567;79;21142;-78
2024/01/12 08:24:50;;;;;;;4.78;1.90;;;;;;;-4.76;58.28;100607.02;1738222;82;21146;-77
2024/01/12 08:27:19;;;;;;;5.97;2.05;;;;;;;-4.64;57.41;100617.81;1806562;79;21567;-76
2024/01/12 08:29:47;;;;;;;5.37;1.85;;;;;;;-4.66;56.92;100611.70;1717194;82;21198;-78
2024/01/12 08:32:16;;;;;;;2.95;1.80;;;;;;;-4.66;56.70;100623.73;1717074;82;21119;-77
2024/01/12 08:34:44;;;;;;;5.35;2.10;;;;;;;-4.75;56.02;100623.45;1806311;79;21111;-78
